Time;durP1;ratioP1;P1;durP2;ratioP2;P2;SDS_P1;SDS_P2;PMS_P1;PMS_P2;Temp;Humidity;BMP_temperature;BMP_pressure;BME280_temperature;BME280_humidity;BME280_pressure;Samples;Min_cycle;Max_cycle;Signal;HPM_P1;HPM_P2
2021/12/15 00:01:15;;;;;;;31.27;15.98;;;;;;;0.02;100.00;95015.88;5139437;27;20023;-75
2021/12/15 00:03:41;;;;;;;31.02;15.52;;;;;;;-0.03;100.00;95013.66;5136452;27;20099;-74
2021/12/15 00:06:13;;;;;;;29.10;15.30;;;;;;;-0.07;100.00;95018.28;5135256;27;20034;-74
2021/12/15 00:08:40;;;;;;;33.15;15.68;;;;;;;-0.18;100.00;95016.56;5136560;27;20019;-74
2021/12/15 00:11:06;;;;;;;28.30;15.50;;;;;;;-0.12;100.00;95026.75;5139146;27;20038;-73
2021/12/15 00:13:33;;;;;;;30.98;15.07;;;;;;;-0.17;100.00;95018.03;5138186;27;20383;-74
2021/12/15 00:15:59;;;;;;;29.52;15.75;;;;;;;-0.10;100.00;95022.53;5142955;27;20042;-75
2021/12/15 00:18:24;;;;;;;29.95;15.57;;;;;;;-0.06;100.00;95030.47;5151224;27;20023;-74
2021/12/15 00:20:50;;;;;;;30.50;15.68;;;;;;;-0.13;100.00;95030.59;5157320;27;20092;-74
2021/12/15 00:23:16;;;;;;;32.25;15.73;;;;;;;0.12;100.00;95036.31;5153906;27;20042;-74
2021/12/15 00:25:43;;;;;;;32.85;17.00;;;;;;;-0.03;100.00;95037.66;5151413;27;20026;-73
2021/12/15 00:28:10;;;;;;;33.45;16.52;;;;;;;-0.22;100.00;95039.88;5151505;27;20033;-73
2021/12/15 00:30:37;;;;;;;37.83;18.23;;;;;;;-0.20;100.00;95037.53;5151219;27;20034;-75
2021/12/15 00:33:04;;;;;;;32.75;16.80;;;;;;;-0.03;100.00;95045.69;5150758;27;20102;-74
2021/12/15 00:35:29;;;;;;;30.33;15.60;;;;;;;0.01;100.00;95043.72;5151120;27;20436;-73
2021/12/15 00:37:55;;;;;;;33.45;16.23;;;;;;;0.08;100.00;95040.94;5118757;27;20034;-72
2021/12/15 00:40:24;;;;;;;31.85;17.05;;;;;;;-0.04;100.00;95038.81;5140973;27;20019;-74
2021/12/15 00:42:50;;;;;;;31.77;16.25;;;;;;;-0.13;100.00;95042.00;5137715;27;20038;-73
2021/12/15 00:45:16;;;;;;;31.88;15.80;;;;;;;-0.04;100.00;95039.59;5116990;27;20030;-74
2021/12/15 00:47:43;;;;;;;35.28;16.95;;;;;;;0.07;100.00;95042.09;5135138;27;20115;-74
2021/12/15 00:50:12;;;;;;;31.38;16.17;;;;;;;0.13;100.00;95032.47;5134994;27;20027;-74
2021/12/15 00:52:40;;;;;;;33.80;16.67;;;;;;;0.10;100.00;95038.63;5134947;27;20384;-75
2021/12/15 00:55:10;;;;;;;34.05;16.70;;;;;;;0.11;100.00;95036.69;5134936;27;20064;-74
2021/12/15 00:57:35;;;;;;;32.05;16.45;;;;;;;-0.15;100.00;95043.56;5116859;27;20034;-74
2021/12/15 01:00:08;;;;;;;32.33;16.27;;;;;;;-0.19;100.00;95036.38;5134768;27;20417;-74
2021/12/15 01:02:34;;;;;;;30.95;15.88;;;;;;;-0.21;100.00;95030.69;5134886;27;20082;-74
2021/12/15 01:05:00;;;;;;;36.70;17.52;;;;;;;-0.15;100.00;95024.91;5134709;27;20069;-74
2021/12/15 01:07:26;;;;;;;31.13;16.38;;;;;;;-0.33;100.00;95022.50;5135244;27;20092;-74
2021/12/15 01:09:55;;;;;;;32.35;15.05;;;;;;;-0.25;100.00;95019.31;5134774;27;20026;-74
2021/12/15 01:20:39;;;;;;;33.63;16.83;;;;;;;-0.10;100.00;95011.84;5135363;27;20041;-74
2021/12/15 01:23:08;;;;;;;33.60;16.52;;;;;;;-0.22;100.00;95013.19;5134812;27;20031;-74
2021/12/15 01:26:01;;;;;;;33.92;16.35;;;;;;;-0.38;100.00;95026.38;5134390;27;20356;-74
2021/12/15 01:28:29;;;;;;;30.40;16.02;;;;;;;-0.20;100.00;95032.19;5105898;27;20443;-74
2021/12/15 01:30:55;;;;;;;26.00;13.98;;;;;;;-0.27;100.00;95026.97;5134351;27;20491;-74
2021/12/15 01:33:23;;;;;;;27.05;14.70;;;;;;;-0.37;100.00;95025.19;5134338;27;20027;-74
2021/12/15 01:35:50;;;;;;;29.88;14.93;;;;;;;-0.37;100.00;95023.31;5134228;27;20027;-74
2021/12/15 01:38:18;;;;;;;32.55;16.90;;;;;;;-0.23;100.00;95033.00;5134147;27;20023;-74
2021/12/15 01:40:45;;;;;;;32.25;16.05;;;;;;;-0.48;100.00;95028.00;5134540;27;20031;-74
2021/12/15 01:43:26;;;;;;;34.72;16.45;;;;;;;-0.41;100.00;95030.59;5134184;27;20090;-75
2021/12/15 01:48:53;;;;;;;29.00;16.20;;;;;;;-0.24;100.00;95026.16;5134914;27;20034;-74
2021/12/15 01:51:19;;;;;;;31.98;16.30;;;;;;;-0.28;100.00;95024.72;5134395;27;20027;-74
2021/12/15 01:53:44;;;;;;;31.30;16.17;;;;;;;-0.28;100.00;95014.03;5134036;27;20073;-74
2021/12/15 01:56:10;;;;;;;29.27;16.15;;;;;;;-0.29;100.00;95010.59;5115820;28;20031;-74
2021/12/15 01:58:35;;;;;;;29.30;15.07;;;;;;;-0.20;100.00;95013.53;5133929;27;20488;-74
2021/12/15 02:01:05;;;;;;;30.50;15.25;;;;;;;-0.43;100.00;95024.16;5133936;28;20115;-74
2021/12/15 02:03:31;;;;;;;30.25;14.63;;;;;;;-0.60;100.00;95013.31;5115730;28;20050;-73
2021/12/15 02:05:58;;;;;;;29.17;14.85;;;;;;;-0.45;100.00;95011.22;5134122;28;20095;-73
2021/12/15 02:08:24;;;;;;;28.98;14.23;;;;;;;-0.53;100.00;95021.22;5133856;28;20030;-74
2021/12/15 02:10:51;;;;;;;33.78;15.80;;;;;;;-0.46;100.00;95020.38;5133823;28;20442;-74
2021/12/15 02:13:18;;;;;;;29.02;15.80;;;;;;;-0.41;100.00;95027.94;5134059;28;20039;-74
2021/12/15 02:15:47;;;;;;;29.02;15.13;;;;;;;-0.43;100.00;95029.47;5134248;28;20031;-75
2021/12/15 02:18:17;;;;;;;28.75;15.07;;;;;;;-0.55;100.00;95023.53;5133809;28;20023;-73
2021/12/15 02:20:51;;;;;;;33.83;16.05;;;;;;;-0.57;100.00;95025.09;5133683;28;20023;-74
2021/12/15 02:23:21;;;;;;;31.52;15.68;;;;;;;-0.55;100.00;95028.09;5116069;28;20375;-75
2021/12/15 02:25:49;;;;;;;28.00;13.43;;;;;;;-0.66;100.00;95022.91;5134018;28;20079;-75
2021/12/15 02:28:15;;;;;;;30.55;15.48;;;;;;;-0.65;100.00;95029.75;5133711;28;20098;-74
2021/12/15 02:30:58;;;;;;;32.47;15.95;;;;;;;-0.56;100.00;95026.59;5137601;27;20022;-74
2021/12/15 02:38:55;;;;;;;34.22;15.32;;;;;;;-0.83;100.00;95029.22;5138301;27;20073;-73
2021/12/15 02:41:23;;;;;;;29.20;15.02;;;;;;;-0.84;100.00;95025.06;5137926;27;20435;-73
2021/12/15 02:43:57;;;;;;;32.28;15.88;;;;;;;-0.78;100.00;95031.44;5137736;27;20428;-74
2021/12/15 02:46:24;;;;;;;32.13;16.85;;;;;;;-0.75;100.00;95035.97;5119344;27;20042;-74
2021/12/15 02:48:50;;;;;;;28.05;15.25;;;;;;;-0.83;100.00;95029.22;5137373;27;20019;-74
2021/12/15 02:51:16;;;;;;;30.83;14.85;;;;;;;-0.82;100.00;95020.81;5137579;27;20023;-74
2021/12/15 02:53:42;;;;;;;28.95;15.20;;;;;;;-0.82;100.00;95026.16;5137930;27;20062;-74
2021/12/15 02:56:07;;;;;;;30.38;16.17;;;;;;;-0.79;100.00;95019.25;5137338;27;20055;-74
2021/12/15 02:58:36;;;;;;;32.00;15.82;;;;;;;-0.71;100.00;95032.13;5137176;27;20023;-73
2021/12/15 03:01:18;;;;;;;32.25;14.90;;;;;;;-0.81;100.00;95021.59;5137170;27;20095;-73
2021/12/15 03:06:23;;;;;;;29.17;13.63;;;;;;;-0.90;100.00;95008.72;5116793;28;20385;-73
2021/12/15 03:09:08;;;;;;;25.13;13.05;;;;;;;-1.01;100.00;95014.19;5116305;28;20027;-73
2021/12/15 03:17:01;;;;;;;25.42;12.90;;;;;;;-0.96;100.00;95027.06;5116411;28;20037;-73
2021/12/15 03:19:27;;;;;;;27.50;13.50;;;;;;;-0.71;100.00;95034.00;5098263;28;20023;-74
2021/12/15 03:21:53;;;;;;;28.88;14.32;;;;;;;-0.70;100.00;95038.94;5116277;28;20035;-74
2021/12/15 03:24:21;;;;;;;31.05;15.00;;;;;;;-0.65;100.00;95029.75;5116107;28;20066;-74
2021/12/15 03:26:59;;;;;;;27.95;13.38;;;;;;;-0.59;100.00;95035.41;5098349;28;20363;-74
2021/12/15 03:37:27;;;;;;;23.63;12.80;;;;;;;-0.32;100.00;95027.41;5116072;28;20096;-75
2021/12/15 03:40:04;;;;;;;23.52;12.48;;;;;;;-0.09;100.00;95031.31;5116108;28;20110;-76
2021/12/15 03:42:35;;;;;;;27.08;13.23;;;;;;;-0.29;100.00;95037.28;5115435;28;20019;-75
2021/12/15 03:45:05;;;;;;;23.10;12.60;;;;;;;-0.14;100.00;95045.84;5116681;28;20106;-74
2021/12/15 03:47:35;;;;;;;25.92;12.75;;;;;;;-0.15;100.00;95038.25;5115707;28;20118;-74
2021/12/15 03:50:05;;;;;;;27.02;13.40;;;;;;;-0.04;100.00;95041.50;5116279;28;20027;-75
2021/12/15 03:52:30;;;;;;;27.92;12.90;;;;;;;-0.03;100.00;95040.34;5115695;28;20031;-75
2021/12/15 03:54:56;;;;;;;23.83;11.65;;;;;;;-0.29;100.00;95039.19;5115793;28;20042;-75
2021/12/15 03:57:22;;;;;;;24.20;12.32;;;;;;;-0.39;100.00;95040.88;5116068;28;20031;-75
2021/12/15 03:59:48;;;;;;;19.85;10.50;;;;;;;-0.34;100.00;95035.09;5115657;28;20028;-73
2021/12/15 04:02:18;;;;;;;20.77;11.63;;;;;;;-0.32;100.00;95046.09;5125459;27;20403;-74
2021/12/15 04:04:45;;;;;;;23.17;12.82;;;;;;;-0.26;100.00;95055.16;5136448;27;20042;-74
2021/12/15 04:07:12;;;;;;;22.40;11.88;;;;;;;-0.32;100.00;95056.00;5135949;27;20050;-74
2021/12/15 04:09:38;;;;;;;23.60;12.18;;;;;;;-0.38;100.00;95061.78;5117784;27;20035;-74
2021/12/15 04:12:04;;;;;;;23.08;12.25;;;;;;;-0.26;100.00;95060.50;5136667;27;20023;-75
2021/12/15 04:14:41;;;;;;;22.75;12.13;;;;;;;-0.31;100.00;95060.19;5117629;27;20096;-75
2021/12/15 04:17:17;;;;;;;22.48;11.80;;;;;;;-0.29;100.00;95077.28;5135855;27;20023;-75
2021/12/15 04:19:43;;;;;;;23.70;12.32;;;;;;;-0.32;100.00;95067.44;5136175;27;20027;-74
2021/12/15 04:22:08;;;;;;;23.35;12.35;;;;;;;-0.36;100.00;95066.72;5135641;27;20380;-75
2021/12/15 04:24:35;;;;;;;25.80;13.13;;;;;;;-0.34;100.00;95069.75;5136004;27;20022;-75
2021/12/15 04:27:03;;;;;;;24.27;12.23;;;;;;;-0.60;100.00;95073.88;5135539;27;20027;-74
2021/12/15 04:29:29;;;;;;;24.50;12.82;;;;;;;-0.58;100.00;95077.66;5135810;27;20420;-74
2021/12/15 04:32:10;;;;;;;29.45;13.07;;;;;;;-0.53;100.00;95073.81;5135487;27;20357;-74
2021/12/15 04:34:36;;;;;;;26.45;12.95;;;;;;;-0.62;100.00;95074.28;5135542;27;20037;-74
2021/12/15 04:37:02;;;;;;;25.48;13.10;;;;;;;-0.67;100.00;95074.72;5135847;27;20031;-74
2021/12/15 04:39:28;;;;;;;23.30;11.75;;;;;;;-0.62;100.00;95070.88;5135559;27;20027;-75
2021/12/15 04:41:56;;;;;;;20.10;10.60;;;;;;;-0.77;100.00;95080.94;5135264;27;20134;-74
2021/12/15 04:44:26;;;;;;;20.98;10.82;;;;;;;-0.68;100.00;95083.91;5135229;27;20022;-74
2021/12/15 04:47:02;;;;;;;18.15;10.38;;;;;;;-0.83;100.00;95071.88;5135458;27;20023;-74
2021/12/15 04:49:34;;;;;;;21.08;11.00;;;;;;;-0.99;100.00;95065.19;5135703;27;20023;-74
2021/12/15 04:52:00;;;;;;;20.73;10.85;;;;;;;-1.07;100.00;95071.75;5135128;27;20095;-75
2021/12/15 04:54:26;;;;;;;19.92;10.65;;;;;;;-1.05;100.00;95072.09;5135017;27;20066;-74
2021/12/15 04:56:52;;;;;;;20.63;10.90;;;;;;;-1.06;100.00;95082.00;5134902;27;20023;-73
2021/12/15 04:59:18;;;;;;;22.70;11.15;;;;;;;-0.93;100.00;95068.16;5134707;27;20463;-75
2021/12/15 05:01:45;;;;;;;20.00;10.77;;;;;;;-0.83;100.00;95071.88;5134837;27;20043;-74
2021/12/15 05:04:11;;;;;;;21.08;11.32;;;;;;;-0.91;100.00;95074.63;5134934;27;20030;-74
2021/12/15 05:06:36;;;;;;;19.80;10.75;;;;;;;-0.91;100.00;95068.53;5135277;27;20023;-74
2021/12/15 05:09:04;;;;;;;19.02;11.93;;;;;;;-0.77;100.00;95078.28;5134939;27;20026;-74
2021/12/15 05:11:29;;;;;;;24.20;12.13;;;;;;;-0.62;100.00;95076.22;5134845;27;20053;-74
2021/12/15 05:13:55;;;;;;;23.80;11.93;;;;;;;-0.60;100.00;95074.66;5134679;27;20050;-74
2021/12/15 05:16:20;;;;;;;20.77;11.98;;;;;;;-0.51;100.00;95080.22;5134940;27;20580;-75
2021/12/15 05:18:46;;;;;;;18.35;10.52;;;;;;;-0.63;100.00;95080.75;5116671;27;20375;-74
2021/12/15 05:21:12;;;;;;;18.50;10.38;;;;;;;-0.70;100.00;95078.94;5134840;27;20031;-74
2021/12/15 05:23:39;;;;;;;20.48;10.38;;;;;;;-0.66;100.00;95081.56;5134525;27;20031;-74
2021/12/15 05:26:04;;;;;;;19.23;10.27;;;;;;;-0.66;100.00;95094.16;5134495;27;20030;-74
2021/12/15 05:28:31;;;;;;;19.35;10.27;;;;;;;-0.65;100.00;95077.75;5134863;27;20390;-74
2021/12/15 05:30:57;;;;;;;19.85;11.15;;;;;;;-0.60;100.00;95085.31;5116348;27;20023;-74
2021/12/15 05:33:26;;;;;;;21.70;10.57;;;;;;;-0.60;100.00;95090.66;5134350;27;20460;-75
2021/12/15 05:35:53;;;;;;;21.38;11.60;;;;;;;-0.64;100.00;95086.50;5134238;27;20031;-74
2021/12/15 05:38:18;;;;;;;21.23;10.95;;;;;;;-0.68;100.00;95099.91;5134085;27;20070;-75
2021/12/15 05:40:44;;;;;;;21.77;11.70;;;;;;;-0.87;100.00;95094.00;5134297;27;20050;-75
2021/12/15 05:43:10;;;;;;;22.80;11.57;;;;;;;-0.90;100.00;95100.13;5134243;27;20031;-75
2021/12/15 05:45:38;;;;;;;24.23;12.52;;;;;;;-0.82;100.00;95094.72;5134036;27;20383;-75
2021/12/15 05:48:07;;;;;;;20.33;11.13;;;;;;;-0.78;100.00;95100.75;5134111;27;20026;-75
2021/12/15 05:50:33;;;;;;;22.52;12.35;;;;;;;-0.82;100.00;95105.38;5133937;27;20027;-75
2021/12/15 05:53:00;;;;;;;23.80;11.75;;;;;;;-0.72;100.00;95104.50;5133977;27;20479;-75
2021/12/15 05:55:26;;;;;;;22.02;11.73;;;;;;;-0.76;100.00;95103.78;5133980;27;20027;-75
2021/12/15 05:57:52;;;;;;;26.17;12.73;;;;;;;-0.77;100.00;95099.59;5134165;27;20023;-75
2021/12/15 06:00:22;;;;;;;28.20;14.25;;;;;;;-0.79;100.00;95093.91;5133888;27;20023;-75
2021/12/15 06:02:48;;;;;;;26.40;14.23;;;;;;;-0.89;100.00;95082.97;5133947;28;20192;-75
2021/12/15 06:05:15;;;;;;;29.63;13.88;;;;;;;-0.90;100.00;95091.34;5133889;27;20091;-76
2021/12/15 06:07:41;;;;;;;27.83;14.35;;;;;;;-0.92;100.00;95091.75;5138041;28;20029;-74
2021/12/15 06:10:10;;;;;;;29.50;13.85;;;;;;;-0.90;100.00;95102.00;5143164;28;20029;-76
2021/12/15 06:12:37;;;;;;;30.05;15.38;;;;;;;-0.73;100.00;95103.00;5134200;28;20474;-72
2021/12/15 06:15:05;;;;;;;30.70;14.50;;;;;;;-0.82;100.00;95108.03;5133602;28;20027;-72
2021/12/15 06:17:31;;;;;;;25.88;13.88;;;;;;;-0.77;100.00;95108.34;5135454;28;20101;-74
2021/12/15 06:19:57;;;;;;;24.20;13.70;;;;;;;-0.68;100.00;95099.91;5147835;28;20038;-75
2021/12/15 06:22:29;;;;;;;24.38;12.43;;;;;;;-0.73;100.00;95105.66;5141046;28;20031;-74
2021/12/15 06:24:56;;;;;;;23.80;13.07;;;;;;;-0.76;100.00;95104.53;5134315;28;20035;-73
2021/12/15 06:27:23;;;;;;;24.40;12.48;;;;;;;-0.73;100.00;95111.00;5138844;28;20034;-75
2021/12/15 06:29:51;;;;;;;26.00;12.50;;;;;;;-0.79;100.00;95101.91;5134426;28;20031;-75
2021/12/15 06:32:16;;;;;;;24.05;12.27;;;;;;;-0.74;100.00;95104.88;5134273;28;20028;-73
2021/12/15 06:34:44;;;;;;;28.60;13.55;;;;;;;-0.65;100.00;95115.09;5133867;28;20023;-78
2021/12/15 06:37:10;;;;;;;25.08;12.80;;;;;;;-0.77;100.00;95118.28;5135439;28;20395;-73
2021/12/15 06:39:36;;;;;;;24.88;12.82;;;;;;;-0.76;100.00;95114.47;5134376;28;20023;-73
2021/12/15 06:42:03;;;;;;;24.42;13.10;;;;;;;-0.63;100.00;95098.69;5135210;28;20053;-74
2021/12/15 06:44:29;;;;;;;26.90;13.43;;;;;;;-0.65;100.00;95098.34;5134580;28;20031;-74
2021/12/15 06:58:12;;;;;;;23.50;11.50;;;;;;;-0.92;100.00;95118.41;5134018;28;20111;-75
2021/12/15 07:00:43;;;;;;;22.17;11.55;;;;;;;-0.76;100.00;95122.47;5133231;28;20033;-74
2021/12/15 07:03:09;;;;;;;21.20;11.38;;;;;;;-0.77;100.00;95126.28;5115322;28;20058;-75
2021/12/15 07:05:35;;;;;;;20.65;9.80;;;;;;;-0.94;100.00;95131.38;5115323;28;20026;-75
2021/12/15 07:08:04;;;;;;;21.60;11.63;;;;;;;-0.84;100.00;95134.34;5133266;28;20034;-75
2021/12/15 07:10:31;;;;;;;17.70;9.60;;;;;;;-0.93;100.00;95122.22;5133536;28;20515;-75
2021/12/15 07:12:58;;;;;;;20.83;10.93;;;;;;;-0.82;100.00;95126.69;5133378;28;20102;-74
2021/12/15 07:15:24;;;;;;;24.15;11.65;;;;;;;-0.75;100.00;95131.94;5134590;27;20019;-74
2021/12/15 07:17:53;;;;;;;24.15;11.65;;;;;;;-0.82;100.00;95134.69;5137030;27;20054;-75
2021/12/15 07:20:39;;;;;;;22.73;10.57;;;;;;;-0.89;100.00;95136.25;5136785;27;20046;-75
2021/12/15 07:23:09;;;;;;;22.48;11.35;;;;;;;-0.79;100.00;95137.34;5118596;27;20030;-74
2021/12/15 07:25:38;;;;;;;22.00;10.88;;;;;;;-0.92;100.00;95134.41;5136694;27;20015;-75
2021/12/15 07:28:04;;;;;;;22.13;11.20;;;;;;;-0.83;100.00;95143.84;5136553;27;20386;-75
2021/12/15 07:30:31;;;;;;;23.60;12.00;;;;;;;-0.73;100.00;95148.31;5136564;27;20038;-74
2021/12/15 07:32:58;;;;;;;24.77;12.98;;;;;;;-0.75;100.00;95139.94;5136444;27;20023;-75
2021/12/15 07:35:23;;;;;;;25.27;12.52;;;;;;;-0.65;100.00;95139.09;5136331;27;20058;-74
2021/12/15 07:37:49;;;;;;;23.30;12.00;;;;;;;-0.67;100.00;95149.38;5136565;27;20027;-74
2021/12/15 07:40:20;;;;;;;22.80;12.75;;;;;;;-0.42;100.00;95156.38;5136570;27;20026;-74
2021/12/15 07:42:57;;;;;;;23.02;11.30;;;;;;;-0.58;100.00;95152.34;5136987;27;20023;-74
2021/12/15 07:45:25;;;;;;;24.20;11.35;;;;;;;-0.68;100.00;95153.97;5136317;27;20031;-74
2021/12/15 07:47:53;;;;;;;19.50;10.38;;;;;;;-0.58;100.00;95157.66;5136266;27;20034;-75
2021/12/15 07:50:20;;;;;;;19.40;10.77;;;;;;;-0.41;100.00;95171.97;5136748;27;20059;-75
2021/12/15 07:52:50;;;;;;;18.42;11.32;;;;;;;-0.62;100.00;95166.88;5136897;27;20038;-75
2021/12/15 07:55:17;;;;;;;16.00;8.93;;;;;;;-0.73;100.00;95172.31;5136272;27;20037;-75
2021/12/15 07:57:43;;;;;;;18.92;10.25;;;;;;;-0.77;100.00;95171.59;5136244;27;20026;-75
2021/12/15 08:00:10;;;;;;;17.75;10.15;;;;;;;-0.80;100.00;95178.47;5135799;27;20054;-75
2021/12/15 08:02:36;;;;;;;18.90;11.82;;;;;;;-0.74;100.00;95176.13;5135712;27;20055;-74
2021/12/15 08:05:02;;;;;;;23.67;11.23;;;;;;;-0.74;100.00;95179.53;5135867;27;20405;-75
2021/12/15 08:07:28;;;;;;;18.80;10.20;;;;;;;-0.89;100.00;95167.50;5135899;27;20042;-75
2021/12/15 08:09:54;;;;;;;16.80;10.00;;;;;;;-0.88;100.00;95182.34;5136008;27;20448;-74
2021/12/15 08:12:19;;;;;;;25.27;10.25;;;;;;;-0.87;100.00;95184.63;5136146;27;20134;-74
2021/12/15 08:14:45;;;;;;;19.92;11.05;;;;;;;-0.68;100.00;95190.53;5135914;27;20189;-75
2021/12/15 08:17:10;;;;;;;27.70;13.10;;;;;;;-0.49;100.00;95185.75;5117506;27;20051;-74
2021/12/15 08:19:36;;;;;;;19.85;10.68;;;;;;;-0.58;100.00;95188.91;5135494;27;20463;-75
2021/12/15 08:22:01;;;;;;;22.33;10.88;;;;;;;-0.70;100.00;95195.50;5135721;27;20037;-75
2021/12/15 08:24:27;;;;;;;17.35;9.80;;;;;;;-0.86;100.00;95202.13;5135617;27;20026;-75
2021/12/15 08:26:53;;;;;;;21.50;10.68;;;;;;;-0.88;100.00;95193.75;5135260;27;20087;-75
2021/12/15 08:29:18;;;;;;;26.75;12.65;;;;;;;-0.75;100.00;95190.59;5135971;27;20027;-75
2021/12/15 08:31:44;;;;;;;27.50;11.98;;;;;;;-0.77;100.00;95192.91;5135529;27;20031;-75
2021/12/15 08:34:09;;;;;;;25.95;13.05;;;;;;;-0.68;100.00;95191.28;5135480;27;20111;-75
2021/12/15 08:36:37;;;;;;;24.35;11.98;;;;;;;-0.91;100.00;95191.88;5135414;27;20448;-75
2021/12/15 08:39:05;;;;;;;22.10;12.02;;;;;;;-0.90;100.00;95200.63;5135649;27;20464;-75
2021/12/15 08:41:32;;;;;;;21.48;10.75;;;;;;;-0.97;100.00;95206.78;5135163;27;20075;-75
2021/12/15 08:43:59;;;;;;;22.35;12.13;;;;;;;-1.01;100.00;95216.72;5135693;27;20063;-74
2021/12/15 08:46:31;;;;;;;20.73;10.13;;;;;;;-1.14;100.00;95205.03;5135178;27;20164;-74
2021/12/15 08:48:57;;;;;;;15.55;9.02;;;;;;;-1.12;100.00;95213.38;5135238;27;20031;-74
2021/12/15 08:51:26;;;;;;;18.67;10.30;;;;;;;-0.97;100.00;95217.44;5134838;27;20035;-75
2021/12/15 08:53:57;;;;;;;19.20;9.30;;;;;;;-1.12;100.00;95213.38;5134931;27;20081;-76
2021/12/15 08:56:23;;;;;;;18.67;9.60;;;;;;;-1.05;100.00;95214.09;5135096;27;20019;-74
2021/12/15 08:58:49;;;;;;;21.00;10.02;;;;;;;-0.89;100.00;95224.22;5135107;27;20035;-74
2021/12/15 09:01:14;;;;;;;16.38;8.40;;;;;;;-1.05;100.00;95216.00;5116826;27;20101;-76
2021/12/15 09:03:42;;;;;;;16.08;8.25;;;;;;;-0.82;100.00;95201.34;5135437;27;20035;-77
2021/12/15 09:06:09;;;;;;;13.98;7.93;;;;;;;-0.90;100.00;95217.41;5135277;27;20378;-76
2021/12/15 09:08:35;;;;;;;17.27;8.02;;;;;;;-0.94;100.00;95219.34;5135070;27;20016;-77
2021/12/15 09:11:05;;;;;;;15.45;8.35;;;;;;;-0.60;100.00;95223.22;5135140;27;20110;-77
2021/12/15 09:13:32;;;;;;;16.97;8.17;;;;;;;-0.68;100.00;95214.53;5135278;27;20038;-76
2021/12/15 09:16:05;;;;;;;19.50;8.48;;;;;;;-0.79;100.00;95211.97;5135297;27;20114;-76
2021/12/15 09:18:32;;;;;;;17.45;8.63;;;;;;;-0.79;100.00;95211.19;5135422;27;20027;-78
2021/12/15 09:20:58;;;;;;;13.45;7.47;;;;;;;-0.73;100.00;95217.63;5120842;27;20027;-75
2021/12/15 09:23:24;;;;;;;14.07;8.13;;;;;;;-0.57;100.00;95215.19;5122169;27;20023;-76
2021/12/15 09:25:49;;;;;;;16.50;8.65;;;;;;;-0.76;100.00;95215.75;5135949;27;20038;-76
2021/12/15 09:28:15;;;;;;;15.88;8.35;;;;;;;-0.89;100.00;95208.22;5135349;27;20031;-74
2021/12/15 09:30:46;;;;;;;13.93;7.90;;;;;;;-0.62;100.00;95215.59;5134611;27;20030;-75
2021/12/15 09:33:19;;;;;;;14.05;8.07;;;;;;;-0.56;100.00;95208.72;5116621;27;20031;-76
2021/12/15 09:35:47;;;;;;;14.70;7.72;;;;;;;-0.59;100.00;95204.16;5135069;27;20102;-76
2021/12/15 09:38:14;;;;;;;15.98;7.38;;;;;;;-0.39;100.00;95217.66;5134199;27;20024;-77
2021/12/15 09:40:41;;;;;;;13.50;7.72;;;;;;;-0.31;100.00;95213.00;5134462;27;20030;-76
2021/12/15 09:43:08;;;;;;;14.75;8.43;;;;;;;-0.83;100.00;95205.16;5116907;27;20023;-77
2021/12/15 10:07:19;;;;;;;19.52;9.95;;;;;;;-0.72;100.00;95208.50;5134344;28;20027;-76
2021/12/15 10:18:29;;;;;;;17.85;9.40;;;;;;;-0.80;100.00;95185.72;5134545;28;20046;-78
2021/12/15 10:20:55;;;;;;;19.02;10.10;;;;;;;-0.71;100.00;95201.97;5134146;28;20103;-80
2021/12/15 10:23:25;;;;;;;16.50;8.90;;;;;;;-0.65;100.00;95194.34;5137661;28;20471;-78
2021/12/15 10:25:54;;;;;;;22.13;9.48;;;;;;;-0.62;100.00;95188.94;5147696;28;20027;-77
2021/12/15 10:28:29;;;;;;;18.45;9.73;;;;;;;-0.49;100.00;95191.09;5149753;28;20421;-78
2021/12/15 10:31:03;;;;;;;17.65;9.85;;;;;;;-0.31;100.00;95197.00;5149712;28;20024;-78
2021/12/15 10:33:43;;;;;;;22.33;10.20;;;;;;;-0.54;100.00;95185.03;5148246;28;20027;-77
2021/12/15 10:36:13;;;;;;;18.08;9.38;;;;;;;-0.18;100.00;95195.34;5150367;28;20031;-78
2021/12/15 10:38:53;;;;;;;19.95;9.32;;;;;;;-0.36;100.00;95178.75;5136860;28;20451;-80
2021/12/15 10:41:24;;;;;;;17.63;9.32;;;;;;;-0.55;100.00;95178.19;5134336;28;20440;-79
2021/12/15 10:43:51;;;;;;;18.67;9.32;;;;;;;-0.52;100.00;95166.75;5133567;28;20092;-79
2021/12/15 10:46:20;;;;;;;22.02;10.23;;;;;;;-0.37;100.00;95178.03;5115564;28;20059;-78
2021/12/15 10:48:47;;;;;;;16.23;10.35;;;;;;;-0.11;100.00;95183.03;5133872;28;20015;-79
2021/12/15 10:51:28;;;;;;;17.00;9.55;;;;;;;-0.22;100.00;95178.59;5136162;27;20064;-79
2021/12/15 10:53:57;;;;;;;18.13;9.93;;;;;;;-0.30;100.00;95181.75;5137958;27;20023;-79
2021/12/15 10:56:31;;;;;;;18.85;10.07;;;;;;;-0.22;100.00;95175.16;5137634;27;20459;-80
2021/12/15 10:59:01;;;;;;;16.17;9.60;;;;;;;-0.39;100.00;95174.22;5137604;27;20031;-79
2021/12/15 11:01:42;;;;;;;21.90;10.93;;;;;;;-0.34;100.00;95179.13;5137129;27;20066;-78
2021/12/15 11:04:29;;;;;;;22.30;12.47;;;;;;;-0.21;100.00;95180.09;5137931;27;20031;-79
2021/12/15 11:07:18;;;;;;;21.05;11.32;;;;;;;-0.14;100.00;95178.50;5137157;27;20102;-80
2021/12/15 11:09:49;;;;;;;18.90;9.80;;;;;;;-0.08;100.00;95177.69;5137813;27;20019;-79
2021/12/15 11:12:23;;;;;;;18.55;9.52;;;;;;;-0.14;100.00;95173.19;5137400;27;20031;-78
2021/12/15 11:14:56;;;;;;;19.55;10.10;;;;;;;-0.17;100.00;95169.41;5137708;27;20031;-79
2021/12/15 11:17:29;;;;;;;16.95;9.68;;;;;;;-0.39;100.00;95163.56;5137763;27;20087;-79
2021/12/15 11:20:09;;;;;;;22.63;11.32;;;;;;;-0.23;100.00;95165.66;5137354;27;20455;-81
2021/12/15 11:22:47;;;;;;;20.65;12.25;;;;;;;-0.19;100.00;95161.03;5137767;27;20023;-80
2021/12/15 11:25:18;;;;;;;20.35;11.80;;;;;;;-0.19;100.00;95164.47;5137928;27;20051;-81
2021/12/15 11:27:46;;;;;;;;;;;;;;;-0.15;100.00;95166.31;5138068;27;20413;-81
2021/12/15 11:30:14;;;;;;;21.23;11.80;;;;;;;-0.28;100.00;95153.50;5136739;27;19907;-80
2021/12/15 11:32:45;;;;;;;19.33;10.50;;;;;;;-0.54;100.00;95158.38;5137049;27;20098;-79
2021/12/15 14:11:34;;;;;;;29.92;13.88;;;;;;;0.01;100.00;95158.50;5128285;22;20065;-81
2021/12/15 14:14:29;;;;;;;25.88;14.38;;;;;;;0.20;100.00;95159.75;5076132;28;20039;-81
2021/12/15 14:16:57;;;;;;;28.05;15.50;;;;;;;0.09;100.00;95165.25;5076973;28;20024;-81
2021/12/15 14:19:29;;;;;;;27.08;16.13;;;;;;;0.21;100.00;95165.88;5093598;28;20150;-79
2021/12/15 14:21:57;;;;;;;35.08;19.70;;;;;;;1.82;100.00;95173.09;5096528;28;20047;-82
2021/12/15 14:24:23;;;;;;;44.28;24.05;;;;;;;2.13;100.00;95180.88;5096619;28;20518;-81
2021/12/15 14:26:51;;;;;;;32.22;16.65;;;;;;;1.40;100.00;95186.13;5098464;28;20131;-80
2021/12/15 14:29:21;;;;;;;27.35;14.98;;;;;;;1.06;100.00;95189.00;5079554;28;20024;-80
2021/12/15 14:31:47;;;;;;;28.05;15.80;;;;;;;0.65;100.00;95188.88;5097784;28;20020;-80
2021/12/15 14:34:27;;;;;;;25.88;14.95;;;;;;;0.41;100.00;95180.06;5097553;28;20552;-79
2021/12/15 14:36:56;;;;;;;28.13;15.32;;;;;;;0.13;100.00;95181.97;5097646;28;20101;-78
2021/12/15 14:39:29;;;;;;;32.05;16.02;;;;;;;0.08;100.00;95174.44;5079375;28;20035;-79
2021/12/15 14:41:58;;;;;;;25.60;15.13;;;;;;;-0.02;100.00;95183.31;5097165;28;20032;-80
2021/12/15 14:44:27;;;;;;;32.05;14.63;;;;;;;-0.12;100.00;95182.31;5096972;28;20035;-79
2021/12/15 14:46:57;;;;;;;28.67;14.98;;;;;;;-0.17;100.00;95188.81;5096887;28;20032;-78
2021/12/15 14:49:46;;;;;;;29.33;15.82;;;;;;;0.05;100.00;95191.22;5097002;28;20043;-78
2021/12/15 14:52:18;;;;;;;27.52;15.43;;;;;;;0.27;100.00;95198.97;5096265;28;20100;-80
2021/12/15 14:54:46;;;;;;;26.00;14.57;;;;;;;-0.02;100.00;95194.00;5097098;28;20032;-81
2021/12/15 14:57:16;;;;;;;25.45;14.80;;;;;;;0.03;100.00;95204.22;5096854;28;20160;-79
2021/12/15 14:59:58;;;;;;;24.55;14.90;;;;;;;-0.11;100.00;95193.72;5079000;28;20493;-81
2021/12/15 15:02:45;;;;;;;30.05;15.50;;;;;;;-0.23;100.00;95197.66;5097231;28;20031;-80
2021/12/15 15:05:18;;;;;;;28.73;16.80;;;;;;;-0.25;100.00;95200.72;5097188;28;20028;-81
2021/12/15 15:07:49;;;;;;;33.60;15.52;;;;;;;-0.37;100.00;95190.59;5097179;28;20031;-79
2021/12/15 15:10:21;;;;;;;34.17;16.73;;;;;;;0.02;100.00;95186.69;5098163;28;20048;-78